Time;durP1;ratioP1;P1;durP2;ratioP2;P2;SDS_P1;SDS_P2;PMS_P1;PMS_P2;Temp;Humidity;BMP_temperature;BMP_pressure;BME280_temperature;BME280_humidity;BME280_pressure;Samples;Min_cycle;Max_cycle;Signal;HPM_P1;HPM_P2
2022/11/19 00:02:22;;;;;;;11.75;9.90;;;;;;;;;;5088239;28;20764;-80
2022/11/19 00:04:50;;;;;;;11.50;9.50;;;;;;;;;;5092617;28;20421;-79
2022/11/19 00:07:16;;;;;;;11.60;9.43;;;;;;;;;;5072032;28;20434;-81
2022/11/19 00:09:43;;;;;;;10.75;9.32;;;;;;;;;;5084689;28;20426;-80
2022/11/19 00:15:00;;;;;;;11.60;9.80;;;;;;;;;;5069109;28;20450;-79
2022/11/19 00:17:26;;;;;;;13.18;10.20;;;;;;;;;;5085362;28;20424;-81
2022/11/19 00:19:53;;;;;;;11.45;9.43;;;;;;;;;;5086780;28;20425;-80
2022/11/19 00:22:20;;;;;;;12.10;9.45;;;;;;;;;;5084936;28;20434;-79
2022/11/19 00:24:48;;;;;;;10.27;8.98;;;;;;;;;;5063665;28;20436;-80
2022/11/19 00:27:18;;;;;;;13.05;10.05;;;;;;;;;;5086604;28;20436;-80
2022/11/19 00:29:47;;;;;;;14.30;10.13;;;;;;;;;;5087204;28;20416;-80
2022/11/19 00:32:14;;;;;;;12.27;10.05;;;;;;;;;;5089547;28;20435;-79
2022/11/19 00:34:41;;;;;;;11.20;9.40;;;;;;;;;;5091374;28;20438;-79
2022/11/19 00:37:08;;;;;;;15.05;9.23;;;;;;;;;;5087820;28;20471;-79
2022/11/19 00:39:34;;;;;;;13.10;9.50;;;;;;;;;;5083226;28;20743;-79
2022/11/19 00:42:03;;;;;;;11.98;9.68;;;;;;;;;;5088720;28;20427;-80
2022/11/19 00:44:30;;;;;;;12.52;9.57;;;;;;;;;;5087355;28;20440;-79
2022/11/19 00:46:58;;;;;;;13.10;9.55;;;;;;;;;;5085883;28;20449;-80
2022/11/19 00:49:24;;;;;;;11.07;9.10;;;;;;;;;;5087939;28;20449;-80
2022/11/19 00:51:52;;;;;;;13.50;10.20;;;;;;;;;;5088064;28;20421;-80
2022/11/19 00:54:19;;;;;;;11.83;9.43;;;;;;;;;;5081995;28;20415;-80
2022/11/19 00:56:45;;;;;;;11.80;9.63;;;;;;;;;;5083158;28;20872;-80
2022/11/19 00:59:12;;;;;;;13.05;9.30;;;;;;;;;;5090105;28;20406;-80
2022/11/19 01:01:45;;;;;;;13.77;9.75;;;;;;;;;;5094750;28;20403;-80
2022/11/19 01:04:12;;;;;;;11.60;10.23;;;;;;;;;;5077037;28;20434;-80
2022/11/19 01:06:38;;;;;;;13.45;10.18;;;;;;;;;;5076330;28;20487;-80
2022/11/19 01:09:05;;;;;;;11.07;8.40;;;;;;;;;;5082201;28;20621;-80
2022/11/19 01:11:32;;;;;;;11.68;9.07;;;;;;;;;;5089364;28;20422;-80
2022/11/19 01:13:59;;;;;;;10.43;8.00;;;;;;;;;;5086536;28;20868;-80
2022/11/19 01:16:26;;;;;;;12.35;9.60;;;;;;;;;;5082479;28;20457;-80
2022/11/19 01:18:55;;;;;;;11.50;8.93;;;;;;;;;;5083310;28;20437;-80
2022/11/19 01:21:23;;;;;;;11.68;9.60;;;;;;;;;;5088279;28;20423;-80
2022/11/19 01:23:51;;;;;;;10.30;9.00;;;;;;;;;;5085255;28;20432;-80
2022/11/19 01:26:18;;;;;;;11.63;9.23;;;;;;;;;;5083894;28;20479;-80
2022/11/19 01:28:45;;;;;;;11.10;9.30;;;;;;;;;;5089681;28;20429;-80
2022/11/19 01:31:13;;;;;;;11.82;9.55;;;;;;;;;;5081927;28;21039;-80
2022/11/19 01:33:41;;;;;;;12.30;9.80;;;;;;;;;;5085337;28;20424;-80
2022/11/19 01:36:14;;;;;;;12.50;9.90;;;;;;;;;;5083892;28;20458;-80
2022/11/19 01:38:40;;;;;;;12.27;9.10;;;;;;;;;;5081288;28;20431;-80
2022/11/19 01:41:06;;;;;;;12.05;9.38;;;;;;;;;;5084399;28;20424;-80
2022/11/19 01:43:40;;;;;;;12.75;9.80;;;;;;;;;;5082267;28;20423;-81
2022/11/19 01:46:07;;;;;;;12.23;8.93;;;;;;;;;;5089236;28;20418;-80
2022/11/19 01:48:36;;;;;;;13.87;9.80;;;;;;;;;;5086914;28;20435;-80
2022/11/19 01:51:06;;;;;;;12.35;10.23;;;;;;;;;;5077623;28;20425;-80
2022/11/19 01:53:37;;;;;;;10.77;9.27;;;;;;;;;;5080487;28;20504;-80
2022/11/19 01:56:05;;;;;;;11.52;9.50;;;;;;;;;;5083050;28;20431;-80
2022/11/19 01:58:36;;;;;;;11.15;8.85;;;;;;;;;;5081317;28;20431;-80
2022/11/19 02:01:02;;;;;;;12.20;9.93;;;;;;;;;;5089632;28;20414;-80
2022/11/19 02:03:30;;;;;;;11.68;9.18;;;;;;;;;;5087115;28;20431;-80
2022/11/19 02:05:57;;;;;;;12.02;8.98;;;;;;;;;;5086034;28;20416;-80
2022/11/19 02:08:41;;;;;;;11.55;9.50;;;;;;;;;;5086497;28;22215;-80
2022/11/19 02:11:30;;;;;;;11.50;9.30;;;;;;;;;;5076050;28;20433;-80
2022/11/19 02:14:01;;;;;;;12.20;9.75;;;;;;;;;;5088110;28;20438;-80
2022/11/19 02:16:33;;;;;;;11.80;9.60;;;;;;;;;;5068190;28;20466;-80
2022/11/19 02:19:03;;;;;;;12.13;9.18;;;;;;;;;;5082023;28;20553;-80
2022/11/19 02:21:32;;;;;;;11.75;9.50;;;;;;;;;;5085147;28;20427;-80
2022/11/19 02:24:11;;;;;;;10.93;9.13;;;;;;;;;;5085176;28;20438;-80
2022/11/19 02:26:59;;;;;;;11.43;9.43;;;;;;;;;;5086202;28;20920;-80
2022/11/19 02:29:41;;;;;;;10.27;8.90;;;;;;;;;;5078256;28;20472;-80
2022/11/19 02:32:10;;;;;;;11.95;8.80;;;;;;;;;;5087961;28;20425;-80
2022/11/19 02:34:40;;;;;;;11.65;9.70;;;;;;;;;;5083741;28;20427;-80
2022/11/19 02:37:11;;;;;;;10.80;9.13;;;;;;;;;;5085864;28;20427;-80
2022/11/19 02:39:40;;;;;;;11.40;9.43;;;;;;;;;;5085971;28;20426;-80
2022/11/19 02:42:08;;;;;;;11.48;9.50;;;;;;;;;;5080762;28;20451;-80
2022/11/19 02:47:26;;;;;;;11.73;9.35;;;;;;;;;;5082212;28;20464;-80
2022/11/19 02:49:55;;;;;;;11.77;8.80;;;;;;;;;;5068276;28;20453;-80
2022/11/19 02:52:24;;;;;;;12.52;9.60;;;;;;;;;;5078850;28;20433;-80
2022/11/19 02:54:51;;;;;;;12.97;9.23;;;;;;;;;;5083847;28;20412;-80
2022/11/19 02:57:17;;;;;;;13.87;9.50;;;;;;;;;;5082063;28;20700;-80
2022/11/19 03:05:29;;;;;;;11.45;9.38;;;;;;;;;;5042083;28;20414;-80
2022/11/19 03:07:55;;;;;;;12.80;9.80;;;;;;;;;;5080307;28;20428;-80
2022/11/19 03:10:24;;;;;;;11.90;9.27;;;;;;;;;;5077371;28;20424;-80
2022/11/19 03:12:53;;;;;;;12.10;8.48;;;;;;;;;;5069162;28;20426;-80
2022/11/19 03:18:13;;;;;;;12.47;9.40;;;;;;;;;;5088766;28;20477;-81
2022/11/19 03:20:43;;;;;;;12.50;9.63;;;;;;;;;;5083891;28;20446;-80
2022/11/19 03:23:12;;;;;;;11.13;9.60;;;;;;;;;;5085731;28;20435;-80
2022/11/19 03:25:41;;;;;;;12.93;10.05;;;;;;;;;;5084179;28;20423;-80
2022/11/19 03:28:12;;;;;;;12.13;8.85;;;;;;;;;;5078635;28;20916;-80
2022/11/19 03:30:40;;;;;;;13.10;9.90;;;;;;;;;;5081894;28;20434;-80
2022/11/19 03:33:08;;;;;;;12.07;9.37;;;;;;;;;;5092231;28;20443;-80
2022/11/19 03:35:39;;;;;;;11.93;9.63;;;;;;;;;;5091470;28;20434;-80
2022/11/19 03:38:08;;;;;;;12.30;10.07;;;;;;;;;;5086016;28;20427;-80
2022/11/19 03:40:36;;;;;;;13.73;10.07;;;;;;;;;;5085845;28;20430;-80
2022/11/19 03:43:05;;;;;;;14.63;10.23;;;;;;;;;;5094166;28;20427;-80
2022/11/19 03:45:34;;;;;;;12.40;9.57;;;;;;;;;;5085987;28;20434;-80
2022/11/19 03:48:00;;;;;;;14.13;10.38;;;;;;;;;;5088402;28;20937;-81
2022/11/19 03:50:31;;;;;;;12.40;9.80;;;;;;;;;;5082599;28;20950;-81
2022/11/19 03:52:58;;;;;;;11.32;9.13;;;;;;;;;;5078641;28;20843;-80
2022/11/19 03:55:38;;;;;;;12.38;10.40;;;;;;;;;;5087034;28;20420;-80
2022/11/19 03:58:06;;;;;;;11.88;8.90;;;;;;;;;;5070830;28;20429;-80
2022/11/19 04:00:32;;;;;;;13.15;9.80;;;;;;;;;;5081479;28;20428;-80
2022/11/19 04:03:00;;;;;;;11.90;10.07;;;;;;;;;;5091700;28;20804;-80
2022/11/19 04:05:27;;;;;;;13.15;9.90;;;;;;;;;;5087847;28;20407;-80
2022/11/19 04:07:53;;;;;;;12.98;10.52;;;;;;;;;;5088984;28;20424;-80
2022/11/19 04:10:26;;;;;;;12.50;10.07;;;;;;;;;;5082640;28;20420;-80
2022/11/19 04:12:53;;;;;;;14.85;10.88;;;;;;;;;;5087816;28;20476;-80
2022/11/19 04:15:19;;;;;;;11.13;9.40;;;;;;;;;;5086087;28;20908;-80
2022/11/19 04:17:47;;;;;;;11.25;9.15;;;;;;;;;;5086527;28;20507;-80
2022/11/19 04:20:14;;;;;;;15.00;10.50;;;;;;;;;;5070853;28;21014;-80
2022/11/19 04:22:45;;;;;;;10.53;9.20;;;;;;;;;;5083850;28;20475;-80
2022/11/19 04:25:12;;;;;;;12.32;10.13;;;;;;;;;;5085675;28;20488;-81
2022/11/19 04:27:40;;;;;;;12.60;9.93;;;;;;;;;;5087607;28;20427;-80
2022/11/19 04:30:07;;;;;;;12.50;9.90;;;;;;;;;;5072901;28;20441;-82
2022/11/19 04:32:38;;;;;;;14.77;10.20;;;;;;;;;;5085603;28;20977;-80
2022/11/19 04:35:06;;;;;;;15.02;10.48;;;;;;;;;;5079008;28;20423;-80
2022/11/19 04:37:32;;;;;;;13.18;10.75;;;;;;;;;;5082890;28;20422;-80
2022/11/19 04:40:00;;;;;;;13.60;10.13;;;;;;;;;;5082534;28;20415;-80
2022/11/19 04:42:27;;;;;;;12.88;10.15;;;;;;;;;;5079029;28;20449;-80
2022/11/19 04:44:55;;;;;;;13.48;9.60;;;;;;;;;;5087435;28;20411;-80
2022/11/19 04:47:25;;;;;;;14.32;10.35;;;;;;;;;;5067791;28;20423;-80
2022/11/19 04:49:53;;;;;;;11.73;10.30;;;;;;;;;;5087173;28;20520;-80
2022/11/19 04:52:20;;;;;;;12.07;9.27;;;;;;;;;;5086588;28;20427;-80
2022/11/19 04:54:46;;;;;;;10.83;9.00;;;;;;;;;;5083639;28;20450;-80
2022/11/19 04:57:12;;;;;;;11.45;9.20;;;;;;;;;;5089843;28;20432;-81
2022/11/19 04:59:39;;;;;;;13.57;10.23;;;;;;;;;;5083602;28;20425;-80
2022/11/19 05:02:09;;;;;;;11.45;9.90;;;;;;;;;;5088705;28;20482;-80
2022/11/19 05:04:38;;;;;;;12.33;10.00;;;;;;;;;;5085015;28;20441;-80
2022/11/19 05:07:08;;;;;;;13.00;10.20;;;;;;;;;;5086082;28;20424;-80
2022/11/19 05:09:37;;;;;;;12.45;9.70;;;;;;;;;;5083175;28;20415;-80
2022/11/19 05:12:04;;;;;;;11.70;9.63;;;;;;;;;;5086646;28;20444;-80
2022/11/19 05:14:31;;;;;;;13.68;10.48;;;;;;;;;;5084379;28;20421;-80
2022/11/19 05:16:57;;;;;;;12.00;9.75;;;;;;;;;;5068841;28;20447;-80
2022/11/19 05:19:30;;;;;;;13.35;9.90;;;;;;;;;;5089039;28;20406;-81
2022/11/19 05:21:57;;;;;;;14.20;10.23;;;;;;;;;;5078600;28;20823;-80
2022/11/19 05:24:24;;;;;;;12.65;9.50;;;;;;;;;;5062904;28;20426;-80
2022/11/19 05:26:52;;;;;;;11.33;10.10;;;;;;;;;;5067060;28;20436;-80
2022/11/19 05:29:19;;;;;;;12.50;9.70;;;;;;;;;;5086652;28;20405;-80
2022/11/19 05:31:46;;;;;;;12.55;9.85;;;;;;;;;;5059475;28;20437;-80
2022/11/19 05:34:12;;;;;;;12.60;10.02;;;;;;;;;;5084528;28;20409;-80
2022/11/19 05:36:43;;;;;;;12.35;9.30;;;;;;;;;;5080922;28;20930;-80
2022/11/19 05:39:09;;;;;;;14.40;10.50;;;;;;;;;;5077105;28;20449;-80
2022/11/19 05:41:36;;;;;;;11.98;9.32;;;;;;;;;;5082757;28;20519;-80
2022/11/19 05:44:02;;;;;;;12.52;10.18;;;;;;;;;;5082838;28;20427;-80
2022/11/19 05:46:29;;;;;;;14.05;11.07;;;;;;;;;;5085389;28;20428;-80
2022/11/19 05:48:58;;;;;;;13.82;10.18;;;;;;;;;;5085697;28;20422;-80
2022/11/19 05:51:25;;;;;;;12.20;9.83;;;;;;;;;;5087316;28;20439;-80
2022/11/19 05:53:53;;;;;;;12.50;9.80;;;;;;;;;;5086203;28;20429;-79
2022/11/19 05:56:24;;;;;;;12.45;9.63;;;;;;;;;;5084369;28;20451;-80
2022/11/19 05:58:53;;;;;;;14.43;10.15;;;;;;;;;;5082253;28;20431;-81
2022/11/19 06:01:24;;;;;;;14.25;10.30;;;;;;;;;;5084586;28;20788;-80
2022/11/19 06:03:56;;;;;;;14.00;10.07;;;;;;;;;;5084879;28;20424;-79
2022/11/19 06:06:23;;;;;;;12.95;9.80;;;;;;;;;;5086543;28;20427;-80
2022/11/19 06:08:50;;;;;;;14.43;10.57;;;;;;;;;;5089041;28;20425;-79
2022/11/19 06:13:58;;;;;;;13.13;10.25;;;;;;;;;;5086767;27;20422;-80
2022/11/19 06:16:32;;;;;;;12.07;9.52;;;;;;;;;;5067942;28;20532;-80
2022/11/19 06:19:00;;;;;;;14.33;10.70;;;;;;;;;;5081433;28;20431;-80
2022/11/19 06:21:27;;;;;;;15.27;10.55;;;;;;;;;;5081576;28;20441;-79
2022/11/19 06:23:54;;;;;;;15.32;10.77;;;;;;;;;;5086735;28;20422;-80
2022/11/19 06:26:25;;;;;;;12.98;10.13;;;;;;;;;;5084281;28;20456;-80
2022/11/19 06:28:54;;;;;;;13.40;10.98;;;;;;;;;;5075607;28;20417;-80
2022/11/19 06:31:21;;;;;;;12.75;10.25;;;;;;;;;;5085359;28;20453;-80
2022/11/19 06:33:52;;;;;;;14.93;10.90;;;;;;;;;;5082088;28;20419;-80
2022/11/19 06:36:19;;;;;;;13.25;10.63;;;;;;;;;;5086833;28;20458;-80
2022/11/19 06:38:45;;;;;;;14.40;10.32;;;;;;;;;;5086045;28;20435;-80
2022/11/19 06:41:12;;;;;;;14.30;10.30;;;;;;;;;;5082313;28;20967;-80
2022/11/19 06:43:41;;;;;;;13.48;10.57;;;;;;;;;;5078566;28;20423;-81
2022/11/19 06:46:08;;;;;;;15.93;10.55;;;;;;;;;;5081216;28;20427;-80
2022/11/19 06:48:35;;;;;;;14.23;10.90;;;;;;;;;;5090481;28;20514;-80
2022/11/19 06:51:02;;;;;;;13.75;10.45;;;;;;;;;;5083922;28;21098;-79
2022/11/19 06:53:29;;;;;;;14.53;10.80;;;;;;;;;;5068921;28;20423;-80
2022/11/19 06:55:58;;;;;;;15.67;11.63;;;;;;;;;;5080274;28;20446;-80
2022/11/19 06:58:25;;;;;;;14.90;11.25;;;;;;;;;;5084026;28;20429;-80
2022/11/19 07:00:55;;;;;;;13.13;10.50;;;;;;;;;;5084536;28;20420;-80
2022/11/19 07:03:22;;;;;;;17.55;11.43;;;;;;;;;;5086673;28;21088;-80
2022/11/19 07:05:49;;;;;;;14.20;11.00;;;;;;;;;;5086939;28;20423;-79
2022/11/19 07:08:19;;;;;;;14.68;11.50;;;;;;;;;;5086769;28;20458;-79
2022/11/19 07:10:45;;;;;;;14.93;11.38;;;;;;;;;;5085263;28;20422;-80
2022/11/19 07:13:15;;;;;;;16.10;11.07;;;;;;;;;;5081376;28;20425;-80
2022/11/19 07:15:42;;;;;;;14.15;10.75;;;;;;;;;;5088445;28;20433;-79
2022/11/19 07:18:12;;;;;;;13.83;10.40;;;;;;;;;;5079710;28;20416;-80
2022/11/19 07:20:39;;;;;;;12.75;9.88;;;;;;;;;;5081591;28;20406;-80
2022/11/19 07:23:09;;;;;;;12.68;9.82;;;;;;;;;;5085336;28;20790;-80
2022/11/19 07:25:43;;;;;;;13.50;10.20;;;;;;;;;;5086336;28;20420;-79
2022/11/19 07:28:09;;;;;;;14.30;10.10;;;;;;;;;;5087712;28;20427;-80
2022/11/19 07:30:35;;;;;;;14.77;10.23;;;;;;;;;;5083623;28;20430;-80
2022/11/19 07:33:02;;;;;;;14.77;10.80;;;;;;;;;;5084918;28;20901;-80
2022/11/19 07:35:31;;;;;;;15.18;10.80;;;;;;;;;;5087057;28;20409;-80
2022/11/19 07:37:57;;;;;;;12.77;10.50;;;;;;;;;;5086961;28;20569;-80
2022/11/19 07:40:24;;;;;;;12.30;9.90;;;;;;;;;;5090659;28;20425;-80
2022/11/19 07:42:51;;;;;;;14.27;10.20;;;;;;;;;;5085549;28;20427;-79
2022/11/19 07:45:19;;;;;;;12.95;9.85;;;;;;;;;;5087666;28;20413;-79
2022/11/19 07:47:49;;;;;;;14.13;10.52;;;;;;;;;;5090109;28;20424;-80
2022/11/19 07:50:16;;;;;;;15.60;11.90;;;;;;;;;;5083623;28;20539;-80
2022/11/19 07:52:43;;;;;;;13.30;10.30;;;;;;;;;;5087569;28;20921;-80
2022/11/19 07:55:10;;;;;;;13.90;10.50;;;;;;;;;;5088480;28;20426;-79
2022/11/19 07:57:37;;;;;;;12.73;9.80;;;;;;;;;;5092991;28;20423;-80
2022/11/19 08:00:04;;;;;;;13.45;10.43;;;;;;;;;;5090194;28;20419;-80
2022/11/19 08:02:31;;;;;;;14.50;10.30;;;;;;;;;;5088217;28;20933;-79
2022/11/19 08:04:58;;;;;;;13.83;9.90;;;;;;;;;;5088788;28;20840;-79
2022/11/19 08:07:27;;;;;;;14.50;10.50;;;;;;;;;;5082933;28;20438;-79
2022/11/19 08:09:54;;;;;;;14.18;10.43;;;;;;;;;;5072218;28;20423;-79
2022/11/19 08:12:21;;;;;;;17.05;11.05;;;;;;;;;;5079551;28;20919;-80
2022/11/19 08:14:48;;;;;;;16.00;11.10;;;;;;;;;;5087193;28;20416;-79
2022/11/19 08:20:01;;;;;;;17.92;12.20;;;;;;;;;;5086795;28;20441;-79
2022/11/19 08:22:28;;;;;;;17.27;12.82;;;;;;;;;;5092211;28;20411;-79
2022/11/19 08:24:56;;;;;;;16.05;11.75;;;;;;;;;;5084820;28;20409;-80
2022/11/19 08:27:22;;;;;;;15.87;11.63;;;;;;;;;;5090583;28;20503;-79
2022/11/19 08:29:50;;;;;;;15.45;11.50;;;;;;;;;;5091396;28;20418;-79
2022/11/19 08:32:17;;;;;;;16.95;12.30;;;;;;;;;;5089365;28;20416;-80
2022/11/19 08:34:43;;;;;;;15.35;12.10;;;;;;;;;;5088387;28;20408;-79
2022/11/19 08:37:12;;;;;;;17.02;12.70;;;;;;;;;;5085564;28;20448;-79
2022/11/19 08:39:38;;;;;;;16.67;12.60;;;;;;;;;;5088650;28;20419;-80
2022/11/19 08:44:53;;;;;;;22.30;12.70;;;;;;;;;;5081289;28;20465;-80
2022/11/19 08:47:20;;;;;;;16.50;12.88;;;;;;;;;;5090286;28;20799;-80
2022/11/19 08:49:47;;;;;;;17.60;13.63;;;;;;;;;;5089901;28;20414;-80
2022/11/19 08:52:13;;;;;;;16.48;13.02;;;;;;;;;;5088230;28;20411;-79
2022/11/19 08:54:40;;;;;;;16.50;12.15;;;;;;;;;;5088293;28;20419;-80
2022/11/19 08:57:08;;;;;;;18.00;12.85;;;;;;;;;;5086608;28;20417;-80
2022/11/19 08:59:34;;;;;;;16.13;12.85;;;;;;;;;;5089808;28;20422;-80
2022/11/19 09:02:00;;;;;;;15.45;11.82;;;;;;;;;;5087469;28;21127;-80
2022/11/19 09:04:26;;;;;;;16.23;12.07;;;;;;;;;;5088104;28;20410;-80
2022/11/19 09:06:53;;;;;;;16.10;12.30;;;;;;;;;;5088794;28;20789;-80
2022/11/19 09:09:19;;;;;;;14.05;11.68;;;;;;;;;;5089870;28;20412;-80
2022/11/19 09:11:46;;;;;;;14.30;11.20;;;;;;;;;;5088812;28;20844;-80
2022/11/19 09:14:14;;;;;;;14.55;11.30;;;;;;;;;;5088707;28;20402;-80
2022/11/19 09:16:41;;;;;;;15.80;10.90;;;;;;;;;;5088107;28;20402;-80
2022/11/19 09:19:09;;;;;;;15.25;10.82;;;;;;;;;;5089628;28;20414;-80
2022/11/19 09:21:36;;;;;;;13.10;10.57;;;;;;;;;;5091466;28;20816;-80
2022/11/19 09:24:03;;;;;;;12.35;10.15;;;;;;;;;;5088001;28;20434;-80
2022/11/19 09:26:30;;;;;;;12.75;10.05;;;;;;;;;;5087169;28;20414;-80
2022/11/19 09:28:58;;;;;;;12.90;9.60;;;;;;;;;;5088520;28;20437;-80
2022/11/19 09:31:26;;;;;;;13.55;10.07;;;;;;;;;;5090993;28;21022;-80
2022/11/19 09:33:55;;;;;;;13.53;9.80;;;;;;;;;;5088396;28;20775;-79
2022/11/19 09:36:21;;;;;;;11.57;9.00;;;;;;;;;;5084982;28;20900;-80
2022/11/19 09:38:48;;;;;;;14.07;9.45;;;;;;;;;;5089646;28;20418;-80
2022/11/19 09:41:21;;;;;;;11.95;9.88;;;;;;;;;;5091926;28;20429;-80
2022/11/19 09:43:53;;;;;;;10.27;8.40;;;;;;;;;;5090439;28;20424;-80
2022/11/19 09:46:25;;;;;;;10.90;8.25;;;;;;;;;;5056773;28;20475;-79
2022/11/19 09:48:56;;;;;;;10.67;8.20;;;;;;;;;;5080649;28;20418;-79
2022/11/19 09:51:27;;;;;;;12.45;8.95;;;;;;;;;;5091588;28;20404;-80
2022/11/19 09:53:57;;;;;;;11.57;8.13;;;;;;;;;;5090876;28;20432;-79
2022/11/19 09:56:27;;;;;;;10.25;7.90;;;;;;;;;;5088587;28;20422;-80
2022/11/19 09:58:55;;;;;;;13.23;9.10;;;;;;;;;;5090585;28;20411;-79
2022/11/19 10:01:24;;;;;;;13.57;8.10;;;;;;;;;;5090548;28;20453;-79
2022/11/19 10:03:52;;;;;;;15.52;8.50;;;;;;;;;;5089803;28;20432;-80
2022/11/19 10:06:36;;;;;;;13.80;7.83;;;;;;;;;;5094947;28;20232;-80
2022/11/19 10:09:11;;;;;;;8.90;7.30;;;;;;;;;;5091490;28;20490;-80
2022/11/19 10:11:41;;;;;;;11.67;6.67;;;;;;;;;;5094189;28;20433;-81
2022/11/19 10:14:13;;;;;;;10.50;6.47;;;;;;;;;;5080899;28;20457;-79
2022/11/19 10:16:47;;;;;;;14.00;6.97;;;;;;;;;;5079493;28;20459;-80
2022/11/19 10:19:17;;;;;;;11.80;8.37;;;;;;;;;;5081973;28;20457;-79
2022/11/19 10:21:50;;;;;;;16.60;7.67;;;;;;;;;;5082644;28;20935;-80
2022/11/19 10:24:22;;;;;;;9.03;6.80;;;;;;;;;;5082151;28;20473;-81
2022/11/19 10:26:55;;;;;;;11.27;6.67;;;;;;;;;;5089889;28;20549;-80
2022/11/19 10:29:24;;;;;;;10.40;8.00;;;;;;;;;;5090709;28;20474;-80
2022/11/19 10:31:51;;;;;;;9.10;6.77;;;;;;;;;;5083818;28;20532;-80
2022/11/19 10:34:22;;;;;;;12.10;7.10;;;;;;;;;;5084652;28;20455;-80
2022/11/19 10:36:54;;;;;;;8.80;6.30;;;;;;;;;;5087584;28;20459;-80
2022/11/19 10:39:27;;;;;;;10.07;7.60;;;;;;;;;;5068077;28;20479;-80
2022/11/19 10:41:56;;;;;;;7.70;5.83;;;;;;;;;;5065551;28;20456;-80
2022/11/19 10:44:39;;;;;;;8.87;6.97;;;;;;;;;;5088688;28;20481;-80
2022/11/19 10:47:24;;;;;;;10.70;7.93;;;;;;;;;;5088578;28;20520;-80
2022/11/19 10:49:51;;;;;;;8.90;6.60;;;;;;;;;;5075694;28;21015;-80
2022/11/19 10:52:23;;;;;;;9.03;7.20;;;;;;;;;;5080609;28;20455;-80
2022/11/19 10:54:55;;;;;;;10.43;7.87;;;;;;;;;;5089302;28;20470;-80
2022/11/19 10:57:22;;;;;;;8.20;6.97;;;;;;;;;;5085658;28;21011;-77
2022/11/19 10:59:50;;;;;;;12.17;7.40;;;;;;;;;;5087845;28;21004;-80
2022/11/19 11:02:21;;;;;;;8.90;7.17;;;;;;;;;;5085129;28;20450;-80
2022/11/19 11:05:10;;;;;;;10.40;8.10;;;;;;;;;;5081265;28;20515;-80
2022/11/19 11:08:01;;;;;;;9.10;7.00;;;;;;;;;;5088290;28;20518;-80
2022/11/19 11:10:34;;;;;;;8.20;6.53;;;;;;;;;;5069700;28;20818;-80
2022/11/19 11:15:51;;;;;;;12.50;9.40;;;;;;;;;;5084453;28;21038;-80
2022/11/19 11:18:20;;;;;;;19.27;12.23;;;;;;;;;;5081870;28;20856;-80
2022/11/19 11:20:51;;;;;;;10.43;7.70;;;;;;;;;;5092071;28;20553;-80
2022/11/19 11:23:18;;;;;;;10.03;6.80;;;;;;;;;;5087356;28;20512;-80
2022/11/19 11:26:09;;;;;;;9.00;6.53;;;;;;;;;;5070942;28;20611;-79
2022/11/19 11:28:36;;;;;;;9.00;6.50;;;;;;;;;;5087509;28;20857;-79
2022/11/19 11:31:04;;;;;;;8.63;5.70;;;;;;;;;;5064136;28;20488;-79
2022/11/19 11:33:32;;;;;;;10.20;7.10;;;;;;;;;;5090160;28;20459;-80
2022/11/19 11:36:00;;;;;;;10.00;6.40;;;;;;;;;;5094025;28;20468;-81
2022/11/19 11:38:30;;;;;;;8.70;6.40;;;;;;;;;;5089616;28;20479;-79
2022/11/19 11:41:01;;;;;;;9.43;6.40;;;;;;;;;;5089630;28;20471;-79
2022/11/19 11:43:30;;;;;;;11.43;6.30;;;;;;;;;;5089272;28;20514;-79
2022/11/19 11:45:59;;;;;;;11.90;8.00;;;;;;;;;;5069464;28;20975;-79
2022/11/19 11:48:27;;;;;;;8.90;6.00;;;;;;;;;;5085411;28;20482;-79
2022/11/19 11:50:53;;;;;;;10.17;7.40;;;;;;;;;;5088522;28;21018;-80
2022/11/19 11:53:37;;;;;;;9.73;6.40;;;;;;;;;;5093669;28;20449;-79
2022/11/19 11:56:05;;;;;;;8.13;5.70;;;;;;;;;;5091519;28;21040;-79
2022/11/19 11:58:34;;;;;;;12.03;7.00;;;;;;;;;;5086024;28;20474;-78
2022/11/19 12:01:11;;;;;;;8.57;6.30;;;;;;;;;;5090501;28;20479;-80
2022/11/19 12:03:51;;;;;;;9.23;6.30;;;;;;;;;;5093602;28;20531;-79
2022/11/19 12:06:18;;;;;;;8.47;6.27;;;;;;;;;;5086517;28;20468;-78
2022/11/19 12:08:50;;;;;;;11.40;9.83;;;;;;;;;;5086148;28;20490;-79
2022/11/19 12:11:22;;;;;;;7.17;6.43;;;;;;;;;;5075020;28;20466;-80
2022/11/19 12:13:55;;;;;;;7.67;6.80;;;;;;;;;;5076959;28;20463;-79
2022/11/19 12:16:30;;;;;;;7.77;6.47;;;;;;;;;;5078770;28;20474;-79
2022/11/19 12:19:03;;;;;;;17.60;16.10;;;;;;;;;;5070621;28;20854;-80
2022/11/19 12:21:34;;;;;;;16.67;15.13;;;;;;;;;;5075199;28;20452;-79
2022/11/19 12:24:08;;;;;;;10.80;7.77;;;;;;;;;;5080748;28;20469;-80
2022/11/19 12:26:45;;;;;;;7.47;5.60;;;;;;;;;;5085385;28;20461;-81
2022/11/19 12:29:16;;;;;;;9.90;6.37;;;;;;;;;;5087434;28;20453;-80
2022/11/19 12:31:53;;;;;;;9.43;6.43;;;;;;;;;;5070816;28;20466;-82
2022/11/19 12:34:34;;;;;;;7.43;6.00;;;;;;;;;;5094320;28;20509;-81
2022/11/19 12:37:05;;;;;;;7.03;5.60;;;;;;;;;;5093525;28;20453;-81
2022/11/19 12:39:35;;;;;;;6.30;5.70;;;;;;;;;;5092684;28;20492;-80
2022/11/19 12:42:21;;;;;;;7.97;6.40;;;;;;;;;;5089605;28;20450;-80
2022/11/19 12:45:05;;;;;;;8.93;7.00;;;;;;;;;;5085030;28;20522;-80
2022/11/19 12:47:46;;;;;;;9.30;6.57;;;;;;;;;;5088564;28;20558;-80
2022/11/19 12:50:18;;;;;;;9.43;6.83;;;;;;;;;;5092066;28;20479;-80
2022/11/19 12:53:12;;;;;;;8.47;7.20;;;;;;;;;;5091566;28;20525;-80
2022/11/19 12:55:45;;;;;;;7.97;6.07;;;;;;;;;;5054045;28;20477;-81
2022/11/19 12:58:16;;;;;;;7.30;6.60;;;;;;;;;;5092041;28;20469;-81
2022/11/19 13:00:50;;;;;;;11.23;7.57;;;;;;;;;;5085916;28;20541;-81
2022/11/19 13:03:21;;;;;;;8.17;6.70;;;;;;;;;;5089654;28;20461;-81
2022/11/19 13:05:50;;;;;;;11.30;6.93;;;;;;;;;;5084470;28;20851;-80
2022/11/19 13:08:18;;;;;;;9.30;7.17;;;;;;;;;;5082421;28;20485;-81
2022/11/19 13:10:47;;;;;;;11.20;8.17;;;;;;;;;;5096215;28;20497;-79
2022/11/19 13:13:20;;;;;;;10.53;7.50;;;;;;;;;;5090280;28;20456;-79
2022/11/19 13:15:50;;;;;;;9.10;6.83;;;;;;;;;;5085705;28;20496;-81
2022/11/19 13:18:17;;;;;;;7.50;6.30;;;;;;;;;;5088175;28;20479;-80
2022/11/19 13:20:45;;;;;;;9.63;6.60;;;;;;;;;;5090215;28;20546;-80
2022/11/19 13:23:16;;;;;;;11.83;7.90;;;;;;;;;;5087562;28;20459;-80
2022/11/19 13:25:45;;;;;;;9.13;7.00;;;;;;;;;;5087996;28;20543;-80
2022/11/19 13:28:17;;;;;;;11.87;8.17;;;;;;;;;;5082694;28;20471;-80
2022/11/19 13:30:46;;;;;;;14.23;8.50;;;;;;;;;;5077743;28;20489;-81
2022/11/19 13:33:15;;;;;;;10.73;7.20;;;;;;;;;;5089211;28;20458;-80
2022/11/19 13:35:47;;;;;;;8.20;6.50;;;;;;;;;;5086941;28;20471;-81
2022/11/19 13:38:18;;;;;;;8.20;6.90;;;;;;;;;;5088331;28;20474;-80
2022/11/19 13:40:48;;;;;;;12.30;8.17;;;;;;;;;;5089507;28;20894;-80
2022/11/19 13:46:13;;;;;;;15.83;8.93;;;;;;;;;;5087500;28;20477;-81
2022/11/19 13:48:42;;;;;;;9.67;6.80;;;;;;;;;;5089029;28;20476;-81
2022/11/19 13:51:22;;;;;;;8.93;7.70;;;;;;;;;;5086780;28;20483;-81
2022/11/19 13:53:50;;;;;;;7.60;6.47;;;;;;;;;;5089693;28;20450;-80
2022/11/19 13:56:17;;;;;;;10.90;7.07;;;;;;;;;;5084471;28;20470;-80
2022/11/19 13:58:51;;;;;;;11.90;7.00;;;;;;;;;;5085942;28;20490;-81
2022/11/19 14:01:45;;;;;;;9.40;7.83;;;;;;;;;;5084640;28;20476;-81
2022/11/19 14:04:22;;;;;;;9.20;6.33;;;;;;;;;;5090679;28;20462;-80
2022/11/19 14:06:55;;;;;;;10.17;6.47;;;;;;;;;;5091735;28;20443;-80
2022/11/19 14:09:29;;;;;;;8.20;6.50;;;;;;;;;;5086787;28;20502;-80
2022/11/19 14:12:19;;;;;;;8.17;6.83;;;;;;;;;;5091504;28;20461;-80
2022/11/19 14:26:47;;;;;;;10.57;6.57;;;;;;;;;;5088814;28;20482;-81
2022/11/19 14:29:29;;;;;;;8.00;6.40;;;;;;;;;;5075857;28;20532;-81
2022/11/19 14:32:15;;;;;;;11.00;7.00;;;;;;;;;;5078499;28;20456;-81
2022/11/19 14:34:44;;;;;;;9.70;6.70;;;;;;;;;;5072242;28;20485;-81
2022/11/19 14:37:15;;;;;;;9.90;6.83;;;;;;;;;;5077898;28;20487;-81
2022/11/19 14:39:43;;;;;;;9.40;6.53;;;;;;;;;;5092553;28;20476;-81
2022/11/19 14:42:15;;;;;;;7.53;5.47;;;;;;;;;;5090541;28;20465;-82
2022/11/19 14:44:49;;;;;;;8.87;7.13;;;;;;;;;;5088997;28;20478;-81
2022/11/19 14:47:31;;;;;;;12.40;7.90;;;;;;;;;;5083534;28;20480;-80
2022/11/19 14:49:59;;;;;;;11.40;7.47;;;;;;;;;;5083509;28;20505;-81
2022/11/19 14:52:36;;;;;;;7.93;6.20;;;;;;;;;;5083913;28;21068;-81
2022/11/19 14:55:04;;;;;;;7.50;5.93;;;;;;;;;;5077990;28;20873;-80
2022/11/19 14:57:32;;;;;;;8.00;5.90;;;;;;;;;;5082348;28;20470;-80
2022/11/19 15:00:00;;;;;;;10.60;6.60;;;;;;;;;;5089788;28;20474;-81
2022/11/19 15:02:35;;;;;;;13.03;6.90;;;;;;;;;;5087967;28;21029;-80
2022/11/19 15:05:09;;;;;;;10.53;6.40;;;;;;;;;;5089331;28;20478;-80
2022/11/19 15:07:44;;;;;;;7.77;6.73;;;;;;;;;;5083535;28;20479;-80
2022/11/19 15:10:24;;;;;;;9.20;6.77;;;;;;;;;;5086434;28;20472;-80
2022/11/19 15:13:01;;;;;;;7.83;6.60;;;;;;;;;;5086290;28;20459;-81
2022/11/19 15:15:32;;;;;;;9.37;6.63;;;;;;;;;;5070997;28;20482;-81
2022/11/19 15:18:07;;;;;;;9.53;7.50;;;;;;;;;;5086636;28;20502;-80
2022/11/19 15:20:35;;;;;;;12.60;6.80;;;;;;;;;;5072184;28;20471;-82
2022/11/19 15:23:10;;;;;;;11.33;7.10;;;;;;;;;;5086513;28;20473;-80
2022/11/19 15:25:44;;;;;;;9.30;7.43;;;;;;;;;;5088694;28;20500;-80